KCAK/CAK METAR and TAF weather

Enter ICAO airport designator
Station Type Date Time Source
KCAK METAR 2019/06/24 23:51 UTC NOAA

KCAK 242351Z 15008KT 9SM FEW055 BKN090 OVC180 24/21 A2969 RMK AO2 RAE27 SLP046 P0003 60009 T02390211 10289 20239 56015 $


Station Type Date Time Source
KCAK Decoded METAR 2019/06/24 23:51 UTC NOAA

AKRON-CANTON REGIONAL AIRPORT , OH, United States (KCAK) 40-55N 081-27W 377M
Jun 24, 2019 - 07:51 PM EDT / 2019.06.24 2351 UTC
Wind: from the SSE (150 degrees) at 9 MPH (8 KT):0
Visibility: 9 mile(s):0
Sky conditions: overcast
Precipitation last hour: 0.03 inches
Temperature: 75.0 F (23.9 C)
Dew Point: 70.0 F (21.1 C)
Relative Humidity: 84%
Pressure (altimeter): 29.69 in. Hg (1005 hPa)
Pressure tendency: 0.04 inches (1.5 hPa) lower than three hours ago
ob: KCAK 242351Z 15008KT 9SM FEW055 BKN090 OVC180 24/21 A2969 RMK AO2 RAE27 SLP046 P0003 60009 T02390211 10289 20239 56015
cycle: 0

Station Type Date Time Source
KCAK TAF 2019/06/24 18:40 UTC NOAA

TAF KCAK 241738Z 2418/2518 21011KT P6SM SCT025 BKN100
TEMPO 2422/2502 2SM -TSRA BR OVC025CB
FM250200 23009KT P6SM BKN025
FM250900 24009KT P6SM BKN015
FM251700 26013G23KT P6SM BKN040

Example: see airport list